Hauptseite
METAR-TAF:

METAR-TAF

Flughäfen :

Flughafen Sfax

Sfax, Tunesien

Breite: 34-43N, Länge: 010-41E, Höhe: 21 m

Beobachtung

Neuester Wetterbericht von vor 1 Stunde und 52 Minuten, um 21:00 UTC
Wind 8 kt aus Südwest
Temperatur 13°C
Luftfeuchtigkeit 51%
Luftdruck 1023 hPa
Sichtweite 10 km oder mehr
keine Wolken unter 1500 m und keine Kumulonimbus oder Gewitterwolken

METAR: DTTX 162100Z 22008KT CAVOK 13/03 Q1023 NOSIG

Zeit: 23:52 (22:52 UTC)

Prognose

Neuester Wetterbericht von vor 5 Stunden und 52 Minuten, um 17:00 UTC
Gültige Prognose vom 16 um 18 UTC bis 17 um 18 UTC
Wind 12 kt aus Süd/Südwest
Sichtweite 10 km oder mehr
keine Wolken unter 1500 m und keine Kumulonimbus oder Gewitterwolken
Übergehend zu
vom 17 um 09 UTC bis 17 um 11 UTC
Wind 15 kt aus West

TAF: DTTX 161700Z 1618/1718 21012KT CAVOK BECMG 1709/1711 27015KT

Wetterbeobachtungen und Prognosen von mehr als 4000 Flughäfen (METAR und TAF Bericht).

Die verfügbaren Stationen werden durch gelbe und rote Markierungen auf der Karte dargestellt.

Führen Sie die Maus auf sie, um den Namen der Station zu sehen.

Darauf klicken, um die Beobachtung von Wetterbeobachtungen und Prognosen zu sehen.

Um die Karte zu ändern : klicken Sie auf den grünen Tasten mit einem schwarzen Kreuz Zum Vergrößern, auf den grünen Button mit einem Gedankenstrich zu verkleinern, oder auf die grünen Pfeile für benachbarte Karten.


METAR-TAF: